Time;durP1;ratioP1;P1;durP2;ratioP2;P2;SDS_P1;SDS_P2;PMS_P1;PMS_P2;Temp;Humidity;BMP_temperature;BMP_pressure;BME280_temperature;BME280_humidity;BME280_pressure;Samples;Min_cycle;Max_cycle;Signal;HPM_P1;HPM_P2
2023/12/02 00:00:12;;;;;;;111.63;104.27;;;-1.70;99.90;;;;;;5054064;28;20056;-75
2023/12/02 00:02:37;;;;;;;117.88;110.40;;;-1.70;99.90;;;;;;5051074;28;20065;-75
2023/12/02 00:05:04;;;;;;;139.63;131.13;;;-1.70;99.90;;;;;;5035970;28;20052;-75
2023/12/02 00:07:29;;;;;;;148.77;140.07;;;-1.70;99.90;;;;;;5042636;28;20041;-75
2023/12/02 00:09:55;;;;;;;176.27;166.50;;;-1.70;99.90;;;;;;5033510;28;20382;-75
2023/12/02 00:12:21;;;;;;;144.10;135.27;;;-1.80;99.90;;;;;;5037111;28;20064;-75
2023/12/02 00:14:46;;;;;;;115.27;108.13;;;-1.80;99.90;;;;;;5045275;28;20142;-75
2023/12/02 00:17:12;;;;;;;104.33;97.43;;;-1.80;99.90;;;;;;5062104;28;20040;-75
2023/12/02 00:19:38;;;;;;;113.03;106.00;;;-1.90;99.90;;;;;;5043107;28;20045;-75
2023/12/02 00:22:05;;;;;;;106.60;99.80;;;-1.90;99.90;;;;;;5041347;28;20480;-75
2023/12/02 00:24:31;;;;;;;106.97;100.00;;;-1.90;99.90;;;;;;5053763;28;20052;-75
2023/12/02 00:26:57;;;;;;;84.03;77.67;;;-1.90;99.90;;;;;;5049272;28;20463;-75
2023/12/02 00:29:22;;;;;;;112.37;105.20;;;-1.90;99.90;;;;;;5040299;28;20162;-74
2023/12/02 00:31:48;;;;;;;99.83;93.10;;;-1.90;99.90;;;;;;5053160;28;20052;-75
2023/12/02 00:34:14;;;;;;;139.43;130.80;;;-1.90;99.90;;;;;;5049022;28;20032;-75
2023/12/02 00:36:39;;;;;;;121.33;113.43;;;-1.90;99.90;;;;;;5048577;28;20535;-75
2023/12/02 00:39:05;;;;;;;136.77;128.70;;;-1.90;99.90;;;;;;5052372;28;20058;-75
2023/12/02 00:41:31;;;;;;;140.17;132.03;;;-1.90;99.90;;;;;;5034436;28;20043;-75
2023/12/02 00:43:56;;;;;;;120.03;112.23;;;-1.90;99.90;;;;;;5066865;28;20064;-75
2023/12/02 00:46:22;;;;;;;129.67;121.57;;;-1.80;99.90;;;;;;5075050;28;20067;-75
2023/12/02 00:48:48;;;;;;;158.23;148.97;;;-1.80;99.90;;;;;;5068033;28;20036;-76
2023/12/02 00:51:14;;;;;;;152.63;143.65;;;-1.80;99.90;;;;;;5070187;28;20043;-75
2023/12/02 00:53:40;;;;;;;142.37;133.80;;;-1.80;99.90;;;;;;5070263;28;20040;-75
2023/12/02 00:56:06;;;;;;;142.30;133.73;;;-1.80;99.90;;;;;;5070079;28;20040;-75
2023/12/02 00:58:32;;;;;;;156.30;147.07;;;-1.80;99.90;;;;;;5072506;28;20452;-75
2023/12/02 01:00:57;;;;;;;150.10;141.17;;;-1.70;99.90;;;;;;5049855;28;20080;-75
2023/12/02 01:03:23;;;;;;;135.37;127.23;;;-1.70;99.90;;;;;;5069060;28;20535;-75
2023/12/02 01:05:49;;;;;;;142.80;134.07;;;-1.70;99.90;;;;;;5071061;28;20071;-75
2023/12/02 01:08:15;;;;;;;151.77;142.80;;;-1.70;99.90;;;;;;5031806;28;20087;-75
2023/12/02 01:10:40;;;;;;;153.97;145.00;;;-1.70;99.90;;;;;;5030088;28;20501;-75
2023/12/02 01:13:06;;;;;;;138.70;130.23;;;-1.60;99.90;;;;;;5054819;28;20037;-75
2023/12/02 01:15:32;;;;;;;148.93;140.30;;;-1.70;99.90;;;;;;5062321;28;20488;-75
2023/12/02 01:17:57;;;;;;;156.03;146.83;;;-1.60;99.90;;;;;;5046110;28;20043;-75
2023/12/02 01:20:23;;;;;;;165.00;155.80;;;-1.60;99.90;;;;;;5045828;28;20045;-75
2023/12/02 01:22:49;;;;;;;164.63;155.37;;;-1.60;99.90;;;;;;5056793;28;20040;-75
2023/12/02 01:25:15;;;;;;;145.13;136.43;;;-1.50;99.90;;;;;;5056706;28;20199;-75
2023/12/02 01:27:40;;;;;;;147.93;139.10;;;-1.60;99.90;;;;;;5047841;28;20483;-74
2023/12/02 01:30:06;;;;;;;132.00;123.90;;;-1.60;99.90;;;;;;5049094;28;20519;-75
2023/12/02 01:32:32;;;;;;;158.65;149.52;;;-1.50;99.90;;;;;;5050320;28;20140;-75
2023/12/02 01:34:58;;;;;;;112.27;104.93;;;-1.50;99.90;;;;;;5039134;28;20210;-76
2023/12/02 01:37:23;;;;;;;137.97;129.53;;;-1.50;99.90;;;;;;5065330;28;20569;-75
2023/12/02 01:39:49;;;;;;;155.70;146.33;;;-1.50;99.90;;;;;;5043419;28;20041;-76
2023/12/02 01:42:15;;;;;;;159.63;150.43;;;-1.50;99.90;;;;;;5039474;28;20550;-75
2023/12/02 01:44:40;;;;;;;152.43;143.17;;;-1.50;99.90;;;;;;5061730;28;20044;-75
2023/12/02 01:47:06;;;;;;;152.70;143.77;;;-1.50;99.90;;;;;;5050508;28;20045;-76
2023/12/02 01:49:32;;;;;;;143.40;134.83;;;-1.50;99.90;;;;;;5067626;28;20041;-75
2023/12/02 01:51:58;;;;;;;200.77;189.73;;;-1.60;99.90;;;;;;5069938;28;20496;-75
2023/12/02 01:54:24;;;;;;;156.63;147.32;;;-1.60;99.90;;;;;;5055067;28;20088;-75
2023/12/02 01:56:50;;;;;;;109.33;102.07;;;-1.60;99.90;;;;;;5060774;28;20036;-75
2023/12/02 01:59:16;;;;;;;251.13;237.57;;;-1.60;99.90;;;;;;5047943;28;20503;-75
2023/12/02 02:01:41;;;;;;;215.73;203.50;;;-1.60;99.90;;;;;;5043636;28;20084;-75
2023/12/02 02:04:07;;;;;;;168.87;159.23;;;-1.70;99.90;;;;;;5067220;28;20068;-75
2023/12/02 02:06:33;;;;;;;168.90;159.13;;;-1.70;99.90;;;;;;5046218;28;20041;-75
2023/12/02 02:08:59;;;;;;;152.00;142.93;;;-1.70;99.90;;;;;;5065258;28;20044;-75
2023/12/02 02:11:25;;;;;;;171.37;161.53;;;-1.70;99.90;;;;;;5058933;28;20238;-76
2023/12/02 02:13:50;;;;;;;165.43;156.03;;;-1.80;99.90;;;;;;5062584;28;20071;-76
2023/12/02 02:16:16;;;;;;;211.70;200.40;;;-1.80;99.90;;;;;;5058656;28;20040;-75
2023/12/02 02:18:42;;;;;;;219.23;207.13;;;-1.80;99.90;;;;;;5052625;28;20400;-75
2023/12/02 02:21:07;;;;;;;211.20;199.97;;;-1.80;99.90;;;;;;5046898;28;20040;-75
2023/12/02 02:23:33;;;;;;;149.67;140.73;;;-1.80;99.90;;;;;;5056759;28;20481;-75
2023/12/02 02:25:59;;;;;;;133.47;125.50;;;-1.90;99.90;;;;;;5056702;28;20112;-75
2023/12/02 02:28:26;;;;;;;125.30;117.57;;;-1.90;99.90;;;;;;5059846;28;20374;-76
2023/12/02 02:30:52;;;;;;;128.90;120.25;;;-1.90;99.90;;;;;;5060444;28;20056;-75
2023/12/02 02:33:18;;;;;;;149.97;141.37;;;-1.90;99.90;;;;;;5060053;28;20041;-75
2023/12/02 02:35:44;;;;;;;148.05;139.18;;;-1.90;99.90;;;;;;5041351;28;20044;-75
2023/12/02 02:38:11;;;;;;;148.83;139.93;;;-1.90;99.90;;;;;;5044209;28;20221;-75
2023/12/02 02:40:37;;;;;;;152.55;143.55;;;-1.80;99.90;;;;;;5055449;28;20041;-75
2023/12/02 02:43:03;;;;;;;176.52;166.63;;;-1.90;99.90;;;;;;5064862;28;20457;-75
2023/12/02 02:45:28;;;;;;;172.00;162.10;;;-1.90;99.90;;;;;;5069815;28;20040;-75
2023/12/02 02:47:54;;;;;;;178.07;168.33;;;-1.80;99.90;;;;;;5067844;28;20336;-75
2023/12/02 02:50:20;;;;;;;183.90;173.33;;;-1.80;99.90;;;;;;5073264;28;20115;-76
2023/12/02 02:52:46;;;;;;;177.13;167.23;;;-1.80;99.90;;;;;;5062742;28;20071;-75
2023/12/02 02:55:12;;;;;;;176.13;166.00;;;-1.80;99.90;;;;;;5060582;28;20556;-75
2023/12/02 02:57:38;;;;;;;187.20;176.40;;;-1.80;99.90;;;;;;5067779;28;20124;-75
2023/12/02 03:00:09;;;;;;;206.37;194.80;;;-1.80;99.90;;;;;;5060304;28;20041;-75
2023/12/02 03:02:38;;;;;;;250.05;236.45;;;-1.80;99.90;;;;;;5064698;28;20094;-75
2023/12/02 03:05:04;;;;;;;266.63;251.93;;;-1.70;99.90;;;;;;5055592;28;20083;-75
2023/12/02 03:07:34;;;;;;;250.13;236.57;;;-1.80;99.90;;;;;;5057765;28;20460;-75
2023/12/02 03:10:00;;;;;;;266.08;251.90;;;-1.80;99.90;;;;;;5035686;28;20041;-75
2023/12/02 03:12:27;;;;;;;281.02;265.73;;;-1.80;99.90;;;;;;5038729;28;20424;-76
2023/12/02 03:14:54;;;;;;;186.02;175.23;;;-1.80;99.90;;;;;;5054998;28;20037;-76
2023/12/02 03:17:20;;;;;;;195.52;184.32;;;-1.80;99.90;;;;;;5056021;28;20459;-76
2023/12/02 03:19:49;;;;;;;169.82;159.77;;;-1.80;99.90;;;;;;5063600;28;20044;-76
2023/12/02 03:22:15;;;;;;;182.85;172.20;;;-1.80;99.90;;;;;;5059091;28;20120;-75
2023/12/02 03:24:41;;;;;;;193.80;182.80;;;-1.80;99.90;;;;;;5037522;28;20040;-75
2023/12/02 03:27:07;;;;;;;216.00;203.82;;;-1.80;99.90;;;;;;5050045;28;20060;-75
2023/12/02 03:29:33;;;;;;;184.83;174.27;;;-1.80;99.90;;;;;;5048477;28;20053;-75
2023/12/02 03:31:58;;;;;;;174.55;164.48;;;-1.80;99.90;;;;;;5042720;28;20135;-76
2023/12/02 03:34:24;;;;;;;178.27;168.10;;;-1.80;99.90;;;;;;5041479;28;20442;-76
2023/12/02 03:36:50;;;;;;;185.83;175.13;;;-1.80;99.90;;;;;;5065072;28;20036;-76
2023/12/02 03:39:18;;;;;;;191.40;180.63;;;-1.80;99.90;;;;;;5037686;28;20064;-76
2023/12/02 03:41:44;;;;;;;183.05;172.57;;;-1.80;99.90;;;;;;5060913;28;20103;-76
2023/12/02 03:44:10;;;;;;;195.93;184.77;;;-1.80;99.90;;;;;;5051384;28;20558;-76
2023/12/02 03:46:36;;;;;;;215.13;203.20;;;-1.70;99.90;;;;;;5063950;28;20044;-75
2023/12/02 03:49:02;;;;;;;191.55;180.57;;;-1.70;99.90;;;;;;5060285;28;20594;-75
2023/12/02 03:51:28;;;;;;;204.10;192.48;;;-1.70;99.90;;;;;;5065048;28;20037;-75
2023/12/02 03:53:54;;;;;;;160.60;151.07;;;-1.70;99.90;;;;;;5061300;28;20120;-75
2023/12/02 03:56:20;;;;;;;179.47;168.87;;;-1.70;99.90;;;;;;5043618;28;20415;-75
2023/12/02 03:58:46;;;;;;;195.18;183.93;;;-1.80;99.90;;;;;;5065094;28;20044;-75
2023/12/02 04:01:13;;;;;;;185.48;174.82;;;-1.80;99.90;;;;;;5066412;28;20070;-75
2023/12/02 04:03:38;;;;;;;150.18;141.00;;;-1.80;99.90;;;;;;5073416;28;20522;-75
2023/12/02 04:06:05;;;;;;;164.23;154.80;;;-1.80;99.90;;;;;;5064495;28;20040;-75
2023/12/02 04:08:31;;;;;;;171.75;161.85;;;-1.80;99.90;;;;;;5054884;28;20036;-75
2023/12/02 04:10:57;;;;;;;146.18;137.13;;;-1.80;99.90;;;;;;5063602;28;20162;-75
2023/12/02 04:13:24;;;;;;;153.77;144.53;;;-1.90;99.90;;;;;;5066485;28;20592;-75
2023/12/02 04:15:50;;;;;;;189.18;178.23;;;-1.90;99.90;;;;;;5078286;28;20496;-75
2023/12/02 04:18:16;;;;;;;138.47;129.60;;;-1.90;99.90;;;;;;5069364;28;20450;-75
2023/12/02 04:20:42;;;;;;;191.57;180.67;;;-1.90;99.90;;;;;;5074598;28;20046;-75
2023/12/02 04:23:07;;;;;;;191.60;180.97;;;-1.90;99.90;;;;;;5061206;28;20041;-75
2023/12/02 04:25:34;;;;;;;192.63;181.43;;;-1.90;99.90;;;;;;5056442;28;20565;-76
2023/12/02 04:28:00;;;;;;;198.77;187.65;;;-1.90;99.90;;;;;;5039754;28;20849;-75
2023/12/02 04:30:26;;;;;;;193.27;182.23;;;-1.90;99.90;;;;;;5057882;28;20060;-75
2023/12/02 04:32:51;;;;;;;163.37;153.50;;;-1.90;99.90;;;;;;5062083;28;20525;-75
2023/12/02 04:35:17;;;;;;;175.17;165.13;;;-2.00;99.90;;;;;;5049201;28;20040;-75
2023/12/02 04:37:43;;;;;;;148.13;138.97;;;-2.00;99.90;;;;;;5066899;28;20119;-75
2023/12/02 04:40:11;;;;;;;138.73;129.50;;;-2.00;99.90;;;;;;5060465;28;20041;-75
2023/12/02 04:42:40;;;;;;;158.48;148.82;;;-2.00;99.90;;;;;;5063277;28;20072;-76
2023/12/02 04:45:08;;;;;;;181.73;170.77;;;-2.00;99.90;;;;;;5043843;28;20063;-75
2023/12/02 04:47:37;;;;;;;154.45;145.32;;;-2.00;99.90;;;;;;5063605;28;20044;-75
2023/12/02 04:50:04;;;;;;;163.55;153.63;;;-2.10;99.90;;;;;;5063234;28;20032;-74
2023/12/02 04:52:31;;;;;;;133.75;125.25;;;-2.10;99.90;;;;;;5060723;28;20058;-75
2023/12/02 04:54:56;;;;;;;146.98;137.85;;;-2.10;99.90;;;;;;5046902;28;20045;-75
2023/12/02 04:57:22;;;;;;;177.50;166.97;;;-2.10;99.90;;;;;;5051093;28;20070;-75
2023/12/02 04:59:48;;;;;;;149.40;139.60;;;-2.00;99.90;;;;;;5061595;28;20041;-75
2023/12/02 05:02:14;;;;;;;157.03;147.13;;;-2.10;99.90;;;;;;5059066;28;20067;-75
2023/12/02 05:04:40;;;;;;;218.13;205.93;;;-2.10;99.90;;;;;;5042892;28;20101;-75
2023/12/02 05:07:06;;;;;;;177.65;166.98;;;-2.10;99.90;;;;;;5049230;28;20116;-75
2023/12/02 05:09:32;;;;;;;169.80;159.70;;;-2.10;99.90;;;;;;5057436;28;20119;-74
2023/12/02 05:11:58;;;;;;;161.23;151.77;;;-2.10;99.90;;;;;;5050297;28;20044;-75
2023/12/02 05:14:23;;;;;;;175.03;164.23;;;-2.00;99.90;;;;;;5065824;28;20037;-75
2023/12/02 05:16:49;;;;;;;188.83;177.43;;;-2.00;99.90;;;;;;5054355;28;20041;-75
2023/12/02 05:19:15;;;;;;;137.03;127.87;;;-2.00;99.90;;;;;;5038563;28;20037;-75
2023/12/02 05:21:40;;;;;;;156.47;147.07;;;-2.00;99.90;;;;;;5047031;28;20129;-75
2023/12/02 05:24:08;;;;;;;168.30;158.37;;;-2.00;99.90;;;;;;5053462;28;20555;-75
2023/12/02 05:26:33;;;;;;;164.18;154.07;;;-2.00;99.90;;;;;;5054986;28;20041;-75
2023/12/02 05:29:01;;;;;;;164.10;153.93;;;-1.90;99.90;;;;;;5050078;28;20504;-75
2023/12/02 05:31:26;;;;;;;178.07;167.57;;;-2.00;99.90;;;;;;5056285;28;20060;-76
2023/12/02 05:33:52;;;;;;;176.13;165.33;;;-1.90;99.90;;;;;;5053405;28;20041;-75
2023/12/02 05:36:18;;;;;;;158.57;148.37;;;-1.90;99.90;;;;;;5073276;28;20351;-75
2023/12/02 05:38:43;;;;;;;157.10;147.50;;;-1.90;99.90;;;;;;5043781;28;20040;-75
2023/12/02 05:41:09;;;;;;;157.47;148.03;;;-1.90;99.90;;;;;;5062619;28;20090;-75
2023/12/02 05:43:35;;;;;;;160.80;151.13;;;-1.80;99.90;;;;;;5058713;28;20067;-74
2023/12/02 05:46:01;;;;;;;194.53;182.57;;;-1.80;99.90;;;;;;5067103;28;20072;-74
2023/12/02 05:48:26;;;;;;;160.83;150.90;;;-1.80;99.90;;;;;;5041745;28;20873;-75
2023/12/02 05:50:52;;;;;;;154.60;144.73;;;-1.80;99.90;;;;;;5053355;28;20044;-75
2023/12/02 05:53:18;;;;;;;163.40;152.70;;;-1.80;99.90;;;;;;5038751;28;20037;-75
2023/12/02 05:55:43;;;;;;;175.53;164.50;;;-1.80;99.90;;;;;;5053431;28;20045;-75
2023/12/02 05:58:09;;;;;;;163.90;153.60;;;-1.80;99.90;;;;;;5061043;28;20731;-75
2023/12/02 06:00:35;;;;;;;167.37;156.70;;;-1.70;99.90;;;;;;5041648;28;20044;-75
2023/12/02 06:03:02;;;;;;;197.88;186.38;;;-1.80;99.90;;;;;;5053750;28;20417;-75
2023/12/02 06:05:29;;;;;;;203.95;191.98;;;-1.70;99.90;;;;;;5068807;28;20052;-75
2023/12/02 06:07:54;;;;;;;213.57;200.90;;;-1.70;99.90;;;;;;5038127;28;20120;-75
2023/12/02 06:10:21;;;;;;;190.43;178.90;;;-1.80;99.90;;;;;;5047902;28;20123;-75
2023/12/02 06:12:47;;;;;;;207.70;195.55;;;-1.80;99.90;;;;;;5044909;28;20040;-75
2023/12/02 06:15:13;;;;;;;195.87;183.87;;;-1.70;99.90;;;;;;5054155;28;20558;-75
2023/12/02 06:17:39;;;;;;;187.70;176.50;;;-1.70;99.90;;;;;;5052141;28;20132;-76
2023/12/02 06:20:09;;;;;;;195.88;184.35;;;-1.70;99.90;;;;;;5055744;28;20455;-75
2023/12/02 06:22:35;;;;;;;183.38;172.32;;;-1.70;99.90;;;;;;5050554;28;20051;-75
2023/12/02 06:25:01;;;;;;;200.50;188.70;;;-1.60;99.90;;;;;;5039691;28;20396;-75
2023/12/02 06:27:27;;;;;;;167.33;157.03;;;-1.60;99.90;;;;;;5066681;28;20047;-75
2023/12/02 06:29:52;;;;;;;204.37;191.80;;;-1.60;99.90;;;;;;5054425;28;20291;-75
2023/12/02 06:32:18;;;;;;;200.50;188.67;;;-1.60;99.90;;;;;;5054805;28;20131;-75
2023/12/02 06:34:44;;;;;;;214.88;202.50;;;-1.60;99.90;;;;;;5049049;28;20142;-75
2023/12/02 06:37:10;;;;;;;239.93;226.30;;;-1.60;99.90;;;;;;5052903;28;20071;-75
2023/12/02 06:39:36;;;;;;;184.43;173.17;;;-1.60;99.90;;;;;;5062964;28;20045;-75
2023/12/02 06:42:01;;;;;;;221.13;208.10;;;-1.60;99.90;;;;;;5044810;28;20036;-75
2023/12/02 06:44:27;;;;;;;215.90;203.80;;;-1.60;99.90;;;;;;5063184;28;20408;-75
2023/12/02 06:46:53;;;;;;;180.47;169.33;;;-1.60;99.90;;;;;;5050387;28;20536;-75
2023/12/02 06:49:18;;;;;;;224.23;211.57;;;-1.60;99.90;;;;;;5065596;28;20036;-76
2023/12/02 06:51:44;;;;;;;192.07;180.37;;;-1.60;99.90;;;;;;5045843;28;20045;-75
2023/12/02 06:54:10;;;;;;;217.83;205.37;;;-1.60;99.90;;;;;;5053536;28;20515;-75
2023/12/02 06:56:36;;;;;;;208.23;196.20;;;-1.60;99.90;;;;;;5064948;28;20473;-75
2023/12/02 06:59:03;;;;;;;222.67;209.53;;;-1.60;99.90;;;;;;5057124;28;20115;-76
2023/12/02 07:01:32;;;;;;;239.25;226.00;;;-1.50;99.90;;;;;;5039625;28;20071;-75
2023/12/02 07:04:00;;;;;;;217.20;205.02;;;-1.60;99.90;;;;;;5058153;28;20047;-75
2023/12/02 07:06:26;;;;;;;223.52;210.95;;;-1.50;99.90;;;;;;5064813;28;20040;-75
2023/12/02 07:08:54;;;;;;;219.43;206.68;;;-1.50;99.90;;;;;;5048830;28;20429;-76
2023/12/02 07:11:20;;;;;;;237.50;224.20;;;-1.50;99.90;;;;;;5036562;28;20600;-75
2023/12/02 07:13:46;;;;;;;207.55;195.55;;;-1.50;99.90;;;;;;5053975;28;20040;-75
2023/12/02 07:16:12;;;;;;;208.90;196.90;;;-1.50;99.90;;;;;;5063833;28;20177;-75
2023/12/02 07:18:39;;;;;;;179.07;168.10;;;-1.50;99.90;;;;;;5059675;28;20283;-75
2023/12/02 07:21:05;;;;;;;207.43;195.82;;;-1.50;99.90;;;;;;5058192;28;20044;-76
2023/12/02 07:23:31;;;;;;;219.70;207.30;;;-1.40;99.90;;;;;;5055789;28;20041;-75
2023/12/02 07:25:58;;;;;;;209.23;196.93;;;-1.40;99.90;;;;;;5055665;28;20505;-76
2023/12/02 07:28:27;;;;;;;221.25;208.35;;;-1.40;99.90;;;;;;5068418;28;20637;-75
2023/12/02 07:30:52;;;;;;;275.63;260.73;;;-1.40;99.90;;;;;;5047105;28;20076;-76
2023/12/02 07:33:18;;;;;;;235.83;222.87;;;-1.40;99.90;;;;;;5068234;28;20063;-75
2023/12/02 07:35:44;;;;;;;221.85;209.43;;;-1.30;99.90;;;;;;5048771;28;20045;-75
2023/12/02 07:38:10;;;;;;;252.73;238.73;;;-1.30;99.90;;;;;;5054825;28;20433;-76
2023/12/02 07:40:36;;;;;;;212.17;200.17;;;-1.30;99.90;;;;;;5064281;28;20165;-76
2023/12/02 07:43:02;;;;;;;215.83;203.57;;;-1.30;99.90;;;;;;5052692;28;20278;-75
2023/12/02 07:45:28;;;;;;;179.18;168.90;;;-1.20;99.90;;;;;;5069107;28;20071;-75
2023/12/02 07:47:54;;;;;;;236.38;223.73;;;-1.20;99.90;;;;;;5065613;28;20033;-76
2023/12/02 07:50:20;;;;;;;206.67;194.70;;;-1.20;99.90;;;;;;5043658;28;20116;-76
2023/12/02 07:52:46;;;;;;;214.90;203.20;;;-1.20;99.90;;;;;;5065422;28;20074;-76
2023/12/02 07:55:12;;;;;;;230.50;217.65;;;-1.10;99.90;;;;;;5057059;28;20059;-76
2023/12/02 07:57:38;;;;;;;215.18;203.55;;;-1.10;99.90;;;;;;5054433;28;20456;-76
2023/12/02 08:00:05;;;;;;;212.27;200.48;;;-1.10;99.90;;;;;;5061647;28;20467;-76
2023/12/02 08:02:30;;;;;;;227.82;215.57;;;-1.10;99.90;;;;;;5062524;28;20033;-75
2023/12/02 08:04:57;;;;;;;247.53;234.50;;;-1.10;99.90;;;;;;5046345;28;20047;-76
2023/12/02 08:07:23;;;;;;;265.35;251.48;;;-1.10;99.90;;;;;;5033831;28;20120;-75
2023/12/02 08:09:49;;;;;;;278.48;263.95;;;-1.00;99.90;;;;;;5048845;28;20048;-75
2023/12/02 08:12:15;;;;;;;271.47;257.40;;;-1.00;99.90;;;;;;5058673;28;20036;-75
2023/12/02 08:14:41;;;;;;;284.80;270.23;;;-1.00;99.90;;;;;;5036452;28;20033;-76
2023/12/02 08:17:07;;;;;;;273.27;259.35;;;-1.00;99.90;;;;;;5049258;28;20039;-75
2023/12/02 08:19:33;;;;;;;289.55;274.63;;;-0.90;99.90;;;;;;5061804;28;20037;-76
2023/12/02 08:21:59;;;;;;;258.63;244.82;;;-0.90;99.90;;;;;;5054497;28;20204;-75
2023/12/02 08:24:25;;;;;;;272.83;258.67;;;-0.90;99.90;;;;;;5034307;28;20036;-76
2023/12/02 08:26:51;;;;;;;270.70;257.13;;;-0.80;99.90;;;;;;5052811;28;20033;-75
2023/12/02 08:29:17;;;;;;;275.83;262.13;;;-0.80;99.90;;;;;;5054223;28;20045;-76
2023/12/02 08:31:43;;;;;;;283.73;269.53;;;-0.80;99.90;;;;;;5063600;28;20058;-75
2023/12/02 08:34:08;;;;;;;250.10;237.40;;;-0.70;99.90;;;;;;5053492;28;20091;-76
2023/12/02 08:36:34;;;;;;;248.10;235.83;;;-0.70;99.90;;;;;;5032464;28;20040;-75
2023/12/02 08:39:02;;;;;;;309.83;294.40;;;-0.70;99.90;;;;;;5031769;28;20044;-76
2023/12/02 08:41:28;;;;;;;344.65;327.60;;;-0.70;99.90;;;;;;5033317;28;20041;-77
2023/12/02 08:43:53;;;;;;;368.70;350.60;;;-0.70;99.90;;;;;;5056276;28;20041;-76
2023/12/02 08:46:19;;;;;;;388.07;368.73;;;-0.70;99.90;;;;;;5061922;28;20037;-76
2023/12/02 08:48:46;;;;;;;310.37;295.50;;;-0.70;99.90;;;;;;5048392;28;20143;-76
2023/12/02 08:51:12;;;;;;;285.17;270.92;;;-0.60;99.90;;;;;;5034626;28;20548;-76
2023/12/02 08:53:38;;;;;;;340.95;324.40;;;-0.60;99.90;;;;;;5054124;28;20485;-76
2023/12/02 08:56:04;;;;;;;286.90;273.17;;;-0.60;99.90;;;;;;5046932;28;20099;-76
2023/12/02 08:58:30;;;;;;;264.65;251.43;;;-0.60;99.90;;;;;;5032647;28;20094;-75
2023/12/02 09:00:56;;;;;;;287.70;273.60;;;-0.60;99.90;;;;;;5055228;28;20446;-76
2023/12/02 09:03:22;;;;;;;319.10;303.90;;;-0.50;99.90;;;;;;5034483;28;20044;-76
2023/12/02 09:05:52;;;;;;;307.48;293.02;;;-0.50;99.90;;;;;;5041974;28;20028;-76
2023/12/02 09:08:18;;;;;;;366.15;348.30;;;-0.50;99.90;;;;;;5043915;28;20053;-75
2023/12/02 09:10:44;;;;;;;368.47;350.17;;;-0.40;99.90;;;;;;5030902;28;20049;-75
2023/12/02 09:13:39;;;;;;;390.07;370.53;;;-0.40;99.90;;;;;;5048031;28;20067;-75
2023/12/02 09:16:08;;;;;;;321.67;306.25;;;-0.30;99.90;;;;;;5038436;28;20044;-75
2023/12/02 09:18:35;;;;;;;410.15;389.95;;;-0.30;99.90;;;;;;5064109;28;20046;-75
2023/12/02 09:21:02;;;;;;;308.80;294.52;;;-0.30;99.90;;;;;;5039555;28;20136;-76
2023/12/02 09:23:31;;;;;;;377.75;360.08;;;-0.30;99.90;;;;;;5055624;28;20085;-75
2023/12/02 09:26:02;;;;;;;276.23;263.33;;;-0.20;99.90;;;;;;5032625;28;20029;-76
2023/12/02 09:28:29;;;;;;;264.50;252.65;;;-0.20;99.90;;;;;;5042218;28;20075;-76
2023/12/02 09:31:05;;;;;;;264.30;252.25;;;-0.10;99.90;;;;;;5054407;28;20438;-75
2023/12/02 09:33:32;;;;;;;315.10;300.33;;;-0.10;99.90;;;;;;5057726;28;20048;-75
2023/12/02 09:36:00;;;;;;;359.98;343.10;;;0.00;99.90;;;;;;5062492;28;20041;-75
2023/12/02 09:38:28;;;;;;;386.75;368.92;;;0.00;99.90;;;;;;5053712;28;20041;-75
2023/12/02 09:41:20;;;;;;;353.00;336.42;;;0.10;99.90;;;;;;5054443;28;20051;-75
2023/12/02 09:44:17;;;;;;;288.40;275.55;;;0.10;99.90;;;;;;5039830;28;20443;-74
2023/12/02 09:46:50;;;;;;;313.83;298.63;;;0.20;99.90;;;;;;5014311;28;20504;-76
2023/12/02 09:49:24;;;;;;;347.92;331.92;;;0.20;99.90;;;;;;5048299;28;20036;-75
2023/12/02 09:52:24;;;;;;;566.22;533.92;;;0.30;99.90;;;;;;5041705;28;20059;-75
2023/12/02 09:55:10;;;;;;;304.90;290.88;;;0.40;99.90;;;;;;5057178;28;20044;-75
2023/12/02 09:57:48;;;;;;;361.65;345.17;;;0.40;99.90;;;;;;5062207;28;20151;-75
2023/12/02 10:00:35;;;;;;;341.02;325.70;;;0.50;99.90;;;;;;5067420;28;20045;-75
2023/12/02 10:03:41;;;;;;;385.75;367.63;;;0.50;99.90;;;;;;5047285;28;20215;-74
2023/12/02 10:06:29;;;;;;;326.13;311.40;;;0.60;99.90;;;;;;5065553;28;20033;-75
2023/12/02 10:09:07;;;;;;;381.52;363.95;;;0.70;99.90;;;;;;5071813;28;20407;-75
2023/12/02 10:11:36;;;;;;;379.83;362.33;;;0.80;99.90;;;;;;5069165;28;20041;-75
2023/12/02 10:14:11;;;;;;;423.15;403.33;;;0.90;99.90;;;;;;5060464;28;20041;-75
2023/12/02 10:16:39;;;;;;;405.00;386.08;;;1.00;99.90;;;;;;5056054;28;20064;-74
2023/12/02 10:19:11;;;;;;;465.60;443.08;;;1.10;99.90;;;;;;5035826;28;20037;-74
2023/12/02 10:21:40;;;;;;;500.48;475.75;;;1.20;99.90;;;;;;5045083;28;20657;-74
2023/12/02 10:24:10;;;;;;;451.70;430.30;;;1.30;99.90;;;;;;5056050;28;20029;-75
2023/12/02 10:26:41;;;;;;;476.45;453.00;;;1.30;99.90;;;;;;5043353;28;20036;-74
2023/12/02 10:29:26;;;;;;;473.00;448.77;;;1.40;99.90;;;;;;5070107;28;20059;-74
2023/12/02 10:32:07;;;;;;;595.10;563.70;;;1.50;99.90;;;;;;5049499;28;20098;-74
2023/12/02 10:34:39;;;;;;;504.25;479.45;;;1.60;99.90;;;;;;5033846;28;20123;-74
2023/12/02 10:37:05;;;;;;;494.58;468.73;;;1.70;99.90;;;;;;5031719;28;20095;-74
2023/12/02 10:39:43;;;;;;;429.73;408.92;;;1.80;99.90;;;;;;5048836;28;20059;-75
2023/12/02 10:42:21;;;;;;;428.70;407.83;;;1.80;99.90;;;;;;5031504;28;20563;-74
2023/12/02 10:44:50;;;;;;;467.42;444.75;;;1.90;99.90;;;;;;5040146;28;20048;-74
2023/12/02 10:47:17;;;;;;;495.67;471.45;;;2.00;99.90;;;;;;5040139;28;20074;-74
2023/12/02 10:49:44;;;;;;;445.00;423.52;;;2.00;99.90;;;;;;5054390;28;20115;-73
2023/12/02 10:52:13;;;;;;;465.60;441.75;;;2.00;99.90;;;;;;5056618;28;20064;-73
2023/12/02 10:54:43;;;;;;;515.60;488.50;;;2.00;99.90;;;;;;5039193;28;20037;-73
2023/12/02 10:57:10;;;;;;;499.38;474.80;;;2.00;99.90;;;;;;5038916;28;20404;-73
2023/12/02 11:00:06;;;;;;;409.13;390.05;;;2.00;99.90;;;;;;5039304;28;20044;-72
2023/12/02 11:02:49;;;;;;;368.98;351.48;;;2.00;99.90;;;;;;5053831;28;20127;-73
2023/12/02 11:05:23;;;;;;;390.85;372.85;;;2.00;99.90;;;;;;5048210;28;20044;-73
2023/12/02 11:07:55;;;;;;;457.27;435.35;;;2.00;99.90;;;;;;5034573;28;20101;-73
2023/12/02 11:10:36;;;;;;;467.35;444.00;;;2.00;99.90;;;;;;5058688;28;20052;-74
2023/12/02 11:13:05;;;;;;;429.77;409.92;;;2.00;99.90;;;;;;5028958;28;20052;-73
2023/12/02 11:15:48;;;;;;;430.08;410.30;;;2.00;99.90;;;;;;5054631;28;20041;-74
2023/12/02 11:18:23;;;;;;;411.63;392.88;;;2.00;99.90;;;;;;5062583;28;20681;-74
2023/12/02 11:20:56;;;;;;;428.08;408.33;;;2.00;99.90;;;;;;5054934;28;20071;-74
2023/12/02 11:23:36;;;;;;;411.52;392.52;;;2.00;99.90;;;;;;5057840;28;20040;-74
2023/12/02 11:26:19;;;;;;;423.77;403.45;;;2.00;99.90;;;;;;5060482;28;20045;-74
2023/12/02 11:29:05;;;;;;;449.20;427.98;;;2.00;99.90;;;;;;5055450;28;20481;-72
2023/12/02 11:32:11;;;;;;;429.67;409.77;;;2.10;99.90;;;;;;5064918;28;20053;-73
2023/12/02 11:35:07;;;;;;;546.97;518.40;;;2.10;99.90;;;;;;5041408;28;20124;-73
2023/12/02 11:37:48;;;;;;;337.30;322.17;;;2.10;99.90;;;;;;5048113;28;20051;-74
2023/12/02 11:40:21;;;;;;;519.70;493.95;;;2.10;99.90;;;;;;5042744;28;20048;-74
2023/12/02 11:43:25;;;;;;;453.05;431.27;;;2.20;99.90;;;;;;5056468;28;20035;-73
2023/12/02 11:45:56;;;;;;;464.98;442.65;;;2.20;99.90;;;;;;5062270;28;20130;-74
2023/12/02 11:48:45;;;;;;;435.33;414.10;;;2.20;99.90;;;;;;5053042;28;20128;-74
2023/12/02 11:51:33;;;;;;;469.75;446.60;;;2.20;99.90;;;;;;5041715;28;20697;-73
2023/12/02 11:54:14;;;;;;;563.35;533.80;;;2.20;99.90;;;;;;5060236;28;20079;-73
2023/12/02 11:56:47;;;;;;;492.58;468.50;;;2.20;99.90;;;;;;5067183;28;20234;-73
2023/12/02 11:59:16;;;;;;;439.15;417.83;;;2.30;99.90;;;;;;5055696;28;20035;-73
2023/12/02 12:01:51;;;;;;;538.50;510.98;;;2.20;99.90;;;;;;5058297;28;20113;-73
2023/12/02 12:04:42;;;;;;;545.85;517.65;;;2.20;99.90;;;;;;5036812;28;20052;-74
2023/12/02 12:07:39;;;;;;;519.53;493.00;;;2.30;99.90;;;;;;5046682;28;20036;-74
2023/12/02 12:10:30;;;;;;;565.55;536.38;;;2.30;99.90;;;;;;5037537;28;20111;-74
2023/12/02 12:12:59;;;;;;;501.45;475.80;;;2.30;99.90;;;;;;5057390;28;20509;-74
2023/12/02 12:15:24;;;;;;;485.88;460.98;;;2.30;99.90;;;;;;5057707;28;20036;-74
2023/12/02 12:17:50;;;;;;;536.87;509.97;;;2.30;99.90;;;;;;5053914;28;20077;-74